sensor_id;sensor_type;location;lat;lon;timestamp;pressure;altitude;pressure_sealevel;temperature;humidity
12213;BME280;6169;44.158;22.788;2023-12-20T00:02:33;101342.06;;;-0.00;68.33
12213;BME280;6169;44.158;22.788;2023-12-20T00:07:37;101335.03;;;0.41;68.90
12213;BME280;6169;44.158;22.788;2023-12-20T00:12:39;101335.78;;;0.17;70.39
12213;BME280;6169;44.158;22.788;2023-12-20T00:17:42;101318.25;;;-0.03;70.87
12213;BME280;6169;44.158;22.788;2023-12-20T00:22:45;101315.88;;;-0.06;70.94
12213;BME280;6169;44.158;22.788;2023-12-20T00:27:47;101309.06;;;-0.01;71.63
12213;BME280;6169;44.158;22.788;2023-12-20T00:32:49;101305.03;;;-0.05;68.98
12213;BME280;6169;44.158;22.788;2023-12-20T00:37:53;101308.50;;;0.22;68.30
12213;BME280;6169;44.158;22.788;2023-12-20T00:42:55;101311.31;;;-0.14;69.05
12213;BME280;6169;44.158;22.788;2023-12-20T00:47:57;101300.19;;;-0.01;67.55
12213;BME280;6169;44.158;22.788;2023-12-20T00:53:01;101290.63;;;-0.30;68.96
12213;BME280;6169;44.158;22.788;2023-12-20T00:58:03;101283.16;;;-0.70;69.78
12213;BME280;6169;44.158;22.788;2023-12-20T01:03:05;101281.00;;;-0.67;71.04
12213;BME280;6169;44.158;22.788;2023-12-20T01:08:09;101277.88;;;-0.80;69.98
12213;BME280;6169;44.158;22.788;2023-12-20T01:13:11;101266.94;;;-0.43;69.59
12213;BME280;6169;44.158;22.788;2023-12-20T01:18:13;101267.00;;;-0.34;67.87
12213;BME280;6169;44.158;22.788;2023-12-20T01:23:17;101255.09;;;-0.14;66.57
12213;BME280;6169;44.158;22.788;2023-12-20T01:28:19;101252.53;;;-0.76;69.81
12213;BME280;6169;44.158;22.788;2023-12-20T01:33:21;101245.25;;;-0.40;68.07
12213;BME280;6169;44.158;22.788;2023-12-20T01:38:24;101245.25;;;-0.31;67.60
12213;BME280;6169;44.158;22.788;2023-12-20T01:43:26;101245.13;;;-0.30;70.00
12213;BME280;6169;44.158;22.788;2023-12-20T01:48:29;101215.81;;;-0.40;69.81
12213;BME280;6169;44.158;22.788;2023-12-20T01:53:34;101203.63;;;-0.34;68.07
12213;BME280;6169;44.158;22.788;2023-12-20T01:58:38;101219.03;;;-0.54;67.85
12213;BME280;6169;44.158;22.788;2023-12-20T02:03:41;101213.88;;;-0.81;68.15
12213;BME280;6169;44.158;22.788;2023-12-20T02:08:45;101201.13;;;-0.62;67.78
12213;BME280;6169;44.158;22.788;2023-12-20T02:13:47;101181.19;;;-0.41;67.12
12213;BME280;6169;44.158;22.788;2023-12-20T02:18:49;101176.50;;;-0.65;66.98
12213;BME280;6169;44.158;22.788;2023-12-20T02:23:53;101178.72;;;-0.87;67.57
12213;BME280;6169;44.158;22.788;2023-12-20T02:28:55;101156.88;;;-0.82;68.35
12213;BME280;6169;44.158;22.788;2023-12-20T02:33:57;101164.94;;;-0.48;65.95
12213;BME280;6169;44.158;22.788;2023-12-20T02:39:00;101156.81;;;-0.64;65.54
12213;BME280;6169;44.158;22.788;2023-12-20T02:44:03;101158.78;;;-0.66;66.57
12213;BME280;6169;44.158;22.788;2023-12-20T02:49:06;101121.44;;;-0.84;66.73
12213;BME280;6169;44.158;22.788;2023-12-20T02:54:09;101137.59;;;-0.60;65.91
12213;BME280;6169;44.158;22.788;2023-12-20T02:59:11;101141.63;;;-0.90;65.62
12213;BME280;6169;44.158;22.788;2023-12-20T03:04:13;101145.28;;;-0.65;65.24
12213;BME280;6169;44.158;22.788;2023-12-20T03:09:17;101137.22;;;-0.99;66.27
12213;BME280;6169;44.158;22.788;2023-12-20T03:14:19;101129.78;;;-0.87;66.78
12213;BME280;6169;44.158;22.788;2023-12-20T03:19:21;101126.78;;;-0.84;67.69
12213;BME280;6169;44.158;22.788;2023-12-20T03:24:25;101106.47;;;-0.95;68.90
12213;BME280;6169;44.158;22.788;2023-12-20T03:29:27;101112.22;;;-0.90;68.17
12213;BME280;6169;44.158;22.788;2023-12-20T03:34:29;101112.50;;;-0.67;68.35
12213;BME280;6169;44.158;22.788;2023-12-20T03:39:33;101100.28;;;-0.69;69.58
12213;BME280;6169;44.158;22.788;2023-12-20T03:44:38;101095.06;;;-0.71;71.18
12213;BME280;6169;44.158;22.788;2023-12-20T03:49:40;101100.97;;;-0.67;71.44
12213;BME280;6169;44.158;22.788;2023-12-20T03:54:44;101093.84;;;-0.85;75.04
12213;BME280;6169;44.158;22.788;2023-12-20T03:59:46;101090.47;;;-1.39;79.20
12213;BME280;6169;44.158;22.788;2023-12-20T04:04:48;101091.09;;;-0.67;76.44
12213;BME280;6169;44.158;22.788;2023-12-20T04:09:51;101096.03;;;-0.80;75.68
12213;BME280;6169;44.158;22.788;2023-12-20T04:14:53;101084.75;;;-0.66;73.71
12213;BME280;6169;44.158;22.788;2023-12-20T04:19:55;101076.38;;;-0.63;73.11
12213;BME280;6169;44.158;22.788;2023-12-20T04:24:59;101066.75;;;-0.55;73.03
12213;BME280;6169;44.158;22.788;2023-12-20T04:30:01;101065.59;;;-0.53;71.09
12213;BME280;6169;44.158;22.788;2023-12-20T04:35:04;101070.66;;;-1.02;73.63
12213;BME280;6169;44.158;22.788;2023-12-20T04:40:08;101065.63;;;-0.79;74.11
12213;BME280;6169;44.158;22.788;2023-12-20T04:45:10;101059.50;;;-0.63;73.92
12213;BME280;6169;44.158;22.788;2023-12-20T04:50:14;101066.06;;;-0.92;74.90
12213;BME280;6169;44.158;22.788;2023-12-20T04:55:17;101050.53;;;-0.88;73.79
12213;BME280;6169;44.158;22.788;2023-12-20T05:00:20;101057.06;;;-0.83;75.76
12213;BME280;6169;44.158;22.788;2023-12-20T05:05:22;101052.69;;;-0.92;76.21
12213;BME280;6169;44.158;22.788;2023-12-20T05:10:25;101051.69;;;-0.48;74.57
12213;BME280;6169;44.158;22.788;2023-12-20T05:15:28;101043.19;;;-0.86;76.73
12213;BME280;6169;44.158;22.788;2023-12-20T05:20:30;101045.28;;;-0.72;75.28
12213;BME280;6169;44.158;22.788;2023-12-20T05:25:34;101045.75;;;-0.18;73.22
12213;BME280;6169;44.158;22.788;2023-12-20T05:30:36;101041.28;;;-0.17;72.49
12213;BME280;6169;44.158;22.788;2023-12-20T05:35:38;101029.13;;;-0.46;73.42
12213;BME280;6169;44.158;22.788;2023-12-20T05:40:41;101027.19;;;-0.27;73.77
12213;BME280;6169;44.158;22.788;2023-12-20T05:45:44;101008.53;;;-0.03;71.50
12213;BME280;6169;44.158;22.788;2023-12-20T05:50:46;101014.94;;;-0.46;73.08
12213;BME280;6169;44.158;22.788;2023-12-20T05:55:49;101009.44;;;-0.36;71.86
12213;BME280;6169;44.158;22.788;2023-12-20T06:00:51;101015.34;;;-0.17;71.34
12213;BME280;6169;44.158;22.788;2023-12-20T06:05:53;101008.88;;;-0.06;71.35
12213;BME280;6169;44.158;22.788;2023-12-20T06:10:57;101009.19;;;-0.01;70.01
12213;BME280;6169;44.158;22.788;2023-12-20T06:15:59;101005.78;;;-0.27;69.80
12213;BME280;6169;44.158;22.788;2023-12-20T06:21:01;101004.13;;;-0.28;71.56
12213;BME280;6169;44.158;22.788;2023-12-20T06:26:04;100998.47;;;0.07;70.35
12213;BME280;6169;44.158;22.788;2023-12-20T06:31:06;100987.44;;;-0.06;71.60
12213;BME280;6169;44.158;22.788;2023-12-20T06:36:11;100992.63;;;0.12;72.18
12213;BME280;6169;44.158;22.788;2023-12-20T06:41:15;100990.44;;;0.40;70.77
12213;BME280;6169;44.158;22.788;2023-12-20T06:46:17;100987.63;;;0.25;72.87
12213;BME280;6169;44.158;22.788;2023-12-20T06:51:19;100992.28;;;0.32;74.31
12213;BME280;6169;44.158;22.788;2023-12-20T06:56:23;100986.19;;;0.70;73.53
12213;BME280;6169;44.158;22.788;2023-12-20T07:01:25;100987.72;;;0.65;74.40
12213;BME280;6169;44.158;22.788;2023-12-20T07:06:27;100981.81;;;0.69;75.29
12213;BME280;6169;44.158;22.788;2023-12-20T07:11:30;100984.94;;;0.89;74.49
12213;BME280;6169;44.158;22.788;2023-12-20T07:16:32;100974.38;;;1.04;73.56
12213;BME280;6169;44.158;22.788;2023-12-20T07:21:35;100974.66;;;1.09;74.22
12213;BME280;6169;44.158;22.788;2023-12-20T07:26:39;100957.63;;;1.33;72.08
12213;BME280;6169;44.158;22.788;2023-12-20T07:31:41;100959.28;;;0.95;75.48
12213;BME280;6169;44.158;22.788;2023-12-20T07:36:43;100959.72;;;1.15;74.68
12213;BME280;6169;44.158;22.788;2023-12-20T07:41:47;100968.75;;;1.76;72.98
12213;BME280;6169;44.158;22.788;2023-12-20T07:46:49;100964.84;;;2.02;72.60
12213;BME280;6169;44.158;22.788;2023-12-20T07:51:51;100963.88;;;1.80;73.35
12213;BME280;6169;44.158;22.788;2023-12-20T07:56:55;100953.47;;;2.00;73.48
12213;BME280;6169;44.158;22.788;2023-12-20T08:01:57;100945.31;;;2.31;72.41
12213;BME280;6169;44.158;22.788;2023-12-20T08:06:59;100938.78;;;2.63;71.28
12213;BME280;6169;44.158;22.788;2023-12-20T08:12:04;100929.09;;;2.84;70.78
12213;BME280;6169;44.158;22.788;2023-12-20T08:17:06;100924.22;;;2.87;71.03
12213;BME280;6169;44.158;22.788;2023-12-20T08:22:08;100943.19;;;3.01;70.72
12213;BME280;6169;44.158;22.788;2023-12-20T08:27:11;100908.06;;;2.87;70.25
12213;BME280;6169;44.158;22.788;2023-12-20T08:32:13;100900.84;;;3.24;69.56
12213;BME280;6169;44.158;22.788;2023-12-20T08:37:15;100899.16;;;3.38;67.33
12213;BME280;6169;44.158;22.788;2023-12-20T08:42:19;100887.41;;;3.46;68.50
12213;BME280;6169;44.158;22.788;2023-12-20T08:47:21;100889.97;;;3.32;68.81
12213;BME280;6169;44.158;22.788;2023-12-20T08:52:23;100743.84;;;2.38;69.43
12213;BME280;6169;44.158;22.788;2023-12-20T08:57:27;100887.41;;;3.24;68.74
12213;BME280;6169;44.158;22.788;2023-12-20T09:02:29;100886.22;;;3.12;69.82
12213;BME280;6169;44.158;22.788;2023-12-20T09:07:31;100815.25;;;2.77;68.95
12213;BME280;6169;44.158;22.788;2023-12-20T09:12:35;100856.75;;;3.25;68.18
12213;BME280;6169;44.158;22.788;2023-12-20T09:17:40;100847.72;;;3.11;69.87
12213;BME280;6169;44.158;22.788;2023-12-20T09:22:42;100818.25;;;3.25;68.33
12213;BME280;6169;44.158;22.788;2023-12-20T09:27:45;100819.34;;;3.52;67.30
12213;BME280;6169;44.158;22.788;2023-12-20T09:32:48;100799.25;;;3.54;67.99
12213;BME280;6169;44.158;22.788;2023-12-20T09:37:50;100787.41;;;3.77;67.68
12213;BME280;6169;44.158;22.788;2023-12-20T09:42:56;100781.59;;;3.73;68.01
12213;BME280;6169;44.158;22.788;2023-12-20T09:47:59;100764.09;;;3.91;66.95
12213;BME280;6169;44.158;22.788;2023-12-20T09:53:02;100760.47;;;3.77;68.54
12213;BME280;6169;44.158;22.788;2023-12-20T09:58:06;100751.66;;;3.90;68.13
12213;BME280;6169;44.158;22.788;2023-12-20T10:03:09;100753.91;;;4.21;67.45
12213;BME280;6169;44.158;22.788;2023-12-20T10:08:13;100746.44;;;4.23;67.62
12213;BME280;6169;44.158;22.788;2023-12-20T10:13:17;100738.31;;;4.51;65.79
12213;BME280;6169;44.158;22.788;2023-12-20T10:18:20;100739.63;;;4.82;64.38
12213;BME280;6169;44.158;22.788;2023-12-20T10:23:22;100725.34;;;5.14;64.89
12213;BME280;6169;44.158;22.788;2023-12-20T10:28:26;100713.09;;;5.38;63.38
12213;BME280;6169;44.158;22.788;2023-12-20T10:33:30;100698.97;;;5.50;62.65
12213;BME280;6169;44.158;22.788;2023-12-20T10:38:34;100687.53;;;5.34;62.00
12213;BME280;6169;44.158;22.788;2023-12-20T10:43:37;100677.38;;;4.90;65.16
12213;BME280;6169;44.158;22.788;2023-12-20T10:48:41;100679.44;;;4.68;65.33
12213;BME280;6169;44.158;22.788;2023-12-20T10:53:45;100673.63;;;4.71;65.01
12213;BME280;6169;44.158;22.788;2023-12-20T10:58:50;100668.22;;;4.71;65.87
12213;BME280;6169;44.158;22.788;2023-12-20T11:03:53;100659.13;;;4.79;65.23
12213;BME280;6169;44.158;22.788;2023-12-20T11:09:02;100670.53;;;5.14;64.19
12213;BME280;6169;44.158;22.788;2023-12-20T11:14:16;100651.41;;;4.89;63.59
12213;BME280;6169;44.158;22.788;2023-12-20T11:19:20;100641.03;;;5.06;64.29
12213;BME280;6169;44.158;22.788;2023-12-20T11:24:23;100633.78;;;4.86;63.74
12213;BME280;6169;44.158;22.788;2023-12-20T11:29:32;100633.31;;;5.42;60.19
12213;BME280;6169;44.158;22.788;2023-12-20T11:34:35;100620.06;;;5.14;60.75
12213;BME280;6169;44.158;22.788;2023-12-20T11:39:37;100606.38;;;5.16;61.93
12213;BME280;6169;44.158;22.788;2023-12-20T11:44:42;100598.25;;;5.09;62.98
12213;BME280;6169;44.158;22.788;2023-12-20T11:49:47;100584.19;;;5.72;60.75
12213;BME280;6169;44.158;22.788;2023-12-20T11:54:49;100581.63;;;5.97;58.21
12213;BME280;6169;44.158;22.788;2023-12-20T11:59:53;100576.84;;;5.41;59.89
12213;BME280;6169;44.158;22.788;2023-12-20T12:04:55;100563.56;;;5.26;60.67
12213;BME280;6169;44.158;22.788;2023-12-20T12:09:59;100557.91;;;5.48;59.46
12213;BME280;6169;44.158;22.788;2023-12-20T12:15:03;100552.06;;;5.51;60.87
12213;BME280;6169;44.158;22.788;2023-12-20T12:20:06;100548.50;;;5.63;60.72
12213;BME280;6169;44.158;22.788;2023-12-20T12:25:11;100538.72;;;5.04;63.06
12213;BME280;6169;44.158;22.788;2023-12-20T12:30:16;100529.66;;;5.95;61.65
12213;BME280;6169;44.158;22.788;2023-12-20T12:35:19;100517.75;;;6.34;60.13
12213;BME280;6169;44.158;22.788;2023-12-20T12:40:21;100503.56;;;6.07;59.75
12213;BME280;6169;44.158;22.788;2023-12-20T12:45:25;100506.41;;;5.87;61.72
12213;BME280;6169;44.158;22.788;2023-12-20T12:50:27;100510.72;;;6.27;60.60
12213;BME280;6169;44.158;22.788;2023-12-20T12:55:29;100504.13;;;6.16;61.25
12213;BME280;6169;44.158;22.788;2023-12-20T13:00:33;100495.91;;;6.36;60.23
12213;BME280;6169;44.158;22.788;2023-12-20T13:05:35;100495.19;;;5.84;61.02
12213;BME280;6169;44.158;22.788;2023-12-20T13:10:38;100495.03;;;5.20;61.74
12213;BME280;6169;44.158;22.788;2023-12-20T13:15:41;100495.25;;;5.32;63.15
12213;BME280;6169;44.158;22.788;2023-12-20T13:20:49;100486.06;;;5.78;61.30
12213;BME280;6169;44.158;22.788;2023-12-20T13:25:51;100474.94;;;5.61;61.33
12213;BME280;6169;44.158;22.788;2023-12-20T13:30:54;100467.13;;;5.47;63.45
12213;BME280;6169;44.158;22.788;2023-12-20T13:35:56;100463.22;;;5.36;64.77
12213;BME280;6169;44.158;22.788;2023-12-20T13:40:58;100460.16;;;5.26;65.58
12213;BME280;6169;44.158;22.788;2023-12-20T13:46:02;100464.09;;;5.30;65.15
12213;BME280;6169;44.158;22.788;2023-12-20T13:51:04;100451.00;;;5.33;64.50
12213;BME280;6169;44.158;22.788;2023-12-20T13:56:06;100448.09;;;5.35;64.95
12213;BME280;6169;44.158;22.788;2023-12-20T14:01:10;100451.84;;;5.27;64.53
12213;BME280;6169;44.158;22.788;2023-12-20T14:06:12;100453.19;;;5.50;64.38
12213;BME280;6169;44.158;22.788;2023-12-20T14:11:15;100433.84;;;5.53;64.03
12213;BME280;6169;44.158;22.788;2023-12-20T14:16:19;100428.19;;;5.22;65.85
12213;BME280;6169;44.158;22.788;2023-12-20T14:21:21;100431.72;;;5.23;66.41
12213;BME280;6169;44.158;22.788;2023-12-20T14:26:24;100420.09;;;5.22;66.76
12213;BME280;6169;44.158;22.788;2023-12-20T14:31:29;100420.38;;;5.08;66.69
12213;BME280;6169;44.158;22.788;2023-12-20T14:36:31;100418.34;;;4.96;67.86
12213;BME280;6169;44.158;22.788;2023-12-20T14:41:33;100415.25;;;4.93;67.84
12213;BME280;6169;44.158;22.788;2023-12-20T14:46:36;100418.03;;;4.60;69.93
12213;BME280;6169;44.158;22.788;2023-12-20T14:51:39;100414.72;;;4.44;71.61
12213;BME280;6169;44.158;22.788;2023-12-20T14:56:41;100409.75;;;4.54;69.75
12213;BME280;6169;44.158;22.788;2023-12-20T15:01:44;100406.03;;;4.29;71.41
12213;BME280;6169;44.158;22.788;2023-12-20T15:06:46;100398.53;;;4.24;70.32
12213;BME280;6169;44.158;22.788;2023-12-20T15:11:49;100400.22;;;4.25;71.54
12213;BME280;6169;44.158;22.788;2023-12-20T15:16:53;100396.69;;;3.98;72.90
12213;BME280;6169;44.158;22.788;2023-12-20T15:21:55;100399.19;;;3.86;71.94
12213;BME280;6169;44.158;22.788;2023-12-20T15:26:59;100399.41;;;3.92;73.86
12213;BME280;6169;44.158;22.788;2023-12-20T15:32:03;100396.00;;;3.43;72.42
12213;BME280;6169;44.158;22.788;2023-12-20T15:37:05;100401.78;;;3.33;72.25
12213;BME280;6169;44.158;22.788;2023-12-20T15:42:07;100404.19;;;3.08;70.76
12213;BME280;6169;44.158;22.788;2023-12-20T15:47:11;100416.31;;;2.91;72.60
12213;BME280;6169;44.158;22.788;2023-12-20T15:52:13;100399.34;;;2.49;71.76
12213;BME280;6169;44.158;22.788;2023-12-20T15:57:15;100417.69;;;2.73;71.20
12213;BME280;6169;44.158;22.788;2023-12-20T16:02:19;100411.44;;;2.38;73.72
12213;BME280;6169;44.158;22.788;2023-12-20T16:07:23;100409.94;;;2.57;73.30
12213;BME280;6169;44.158;22.788;2023-12-20T16:12:25;100413.28;;;2.59;72.52
12213;BME280;6169;44.158;22.788;2023-12-20T16:17:28;100411.41;;;2.31;72.56
12213;BME280;6169;44.158;22.788;2023-12-20T16:22:30;100414.00;;;2.18;71.46
12213;BME280;6169;44.158;22.788;2023-12-20T16:27:32;100409.66;;;2.17;72.88
12213;BME280;6169;44.158;22.788;2023-12-20T16:32:36;100412.50;;;1.88;73.69
12213;BME280;6169;44.158;22.788;2023-12-20T16:37:38;100419.91;;;1.43;73.73
12213;BME280;6169;44.158;22.788;2023-12-20T16:42:40;100417.38;;;1.77;71.75
12213;BME280;6169;44.158;22.788;2023-12-20T16:47:44;100423.34;;;1.36;71.71
12213;BME280;6169;44.158;22.788;2023-12-20T16:52:46;100417.53;;;1.54;71.55
12213;BME280;6169;44.158;22.788;2023-12-20T16:57:51;100411.84;;;1.43;71.97
12213;BME280;6169;44.158;22.788;2023-12-20T17:02:55;100415.13;;;1.38;71.09
12213;BME280;6169;44.158;22.788;2023-12-20T17:07:57;100418.31;;;1.48;70.72
12213;BME280;6169;44.158;22.788;2023-12-20T17:12:59;100416.56;;;1.19;71.36
12213;BME280;6169;44.158;22.788;2023-12-20T17:18:03;100421.88;;;1.34;70.72
12213;BME280;6169;44.158;22.788;2023-12-20T17:23:06;100408.00;;;1.30;71.83
12213;BME280;6169;44.158;22.788;2023-12-20T17:28:08;100415.59;;;1.63;73.25
12213;BME280;6169;44.158;22.788;2023-12-20T17:33:12;100424.09;;;1.67;71.56
12213;BME280;6169;44.158;22.788;2023-12-20T17:38:14;100413.75;;;1.27;70.65
12213;BME280;6169;44.158;22.788;2023-12-20T17:43:16;100410.03;;;0.77;71.25
12213;BME280;6169;44.158;22.788;2023-12-20T17:48:20;100416.53;;;0.68;72.14
12213;BME280;6169;44.158;22.788;2023-12-20T17:53:22;100420.56;;;0.93;71.49
12213;BME280;6169;44.158;22.788;2023-12-20T17:58:24;100426.88;;;0.71;71.45
12213;BME280;6169;44.158;22.788;2023-12-20T18:03:28;100422.88;;;0.67;71.14
12213;BME280;6169;44.158;22.788;2023-12-20T18:08:30;100417.06;;;0.78;71.62
12213;BME280;6169;44.158;22.788;2023-12-20T18:13:32;100422.97;;;0.59;72.74
12213;BME280;6169;44.158;22.788;2023-12-20T18:18:35;100419.19;;;0.38;74.23
12213;BME280;6169;44.158;22.788;2023-12-20T18:23:38;100424.25;;;0.92;74.67
12213;BME280;6169;44.158;22.788;2023-12-20T18:28:40;100409.91;;;1.00;73.67
12213;BME280;6169;44.158;22.788;2023-12-20T18:33:43;100413.19;;;0.81;73.22
12213;BME280;6169;44.158;22.788;2023-12-20T18:38:45;100416.31;;;0.69;72.99
12213;BME280;6169;44.158;22.788;2023-12-20T18:43:47;100416.56;;;0.15;74.77
12213;BME280;6169;44.158;22.788;2023-12-20T18:48:51;100425.06;;;0.19;76.68
12213;BME280;6169;44.158;22.788;2023-12-20T18:53:53;100417.16;;;0.55;78.44
12213;BME280;6169;44.158;22.788;2023-12-20T18:58:56;100399.41;;;0.24;78.89
12213;BME280;6169;44.158;22.788;2023-12-20T19:03:59;100400.22;;;0.25;77.51
12213;BME280;6169;44.158;22.788;2023-12-20T19:09:01;100393.78;;;0.49;78.70
12213;BME280;6169;44.158;22.788;2023-12-20T19:14:04;100392.50;;;0.45;79.57
12213;BME280;6169;44.158;22.788;2023-12-20T19:19:10;100382.84;;;0.95;79.18
12213;BME280;6169;44.158;22.788;2023-12-20T19:24:12;100372.59;;;0.99;77.98
12213;BME280;6169;44.158;22.788;2023-12-20T19:29:14;100379.88;;;1.05;77.64
12213;BME280;6169;44.158;22.788;2023-12-20T19:34:18;100370.91;;;1.12;76.86
12213;BME280;6169;44.158;22.788;2023-12-20T19:39:20;100373.16;;;1.52;75.99
12213;BME280;6169;44.158;22.788;2023-12-20T19:44:22;100377.53;;;1.59;75.84
12213;BME280;6169;44.158;22.788;2023-12-20T19:49:26;100384.94;;;1.79;75.52
12213;BME280;6169;44.158;22.788;2023-12-20T19:54:28;100384.72;;;2.30;73.54
12213;BME280;6169;44.158;22.788;2023-12-20T19:59:31;100400.41;;;2.26;72.31
12213;BME280;6169;44.158;22.788;2023-12-20T20:04:34;100391.13;;;2.29;72.28
12213;BME280;6169;44.158;22.788;2023-12-20T20:09:37;100388.22;;;2.02;73.47
12213;BME280;6169;44.158;22.788;2023-12-20T20:14:39;100381.94;;;1.89;74.18
12213;BME280;6169;44.158;22.788;2023-12-20T20:19:42;100378.81;;;2.13;73.13
12213;BME280;6169;44.158;22.788;2023-12-20T20:24:45;100377.47;;;2.59;70.74
12213;BME280;6169;44.158;22.788;2023-12-20T20:29:47;100392.94;;;2.85;70.27
12213;BME280;6169;44.158;22.788;2023-12-20T20:34:50;100392.03;;;3.19;69.32
12213;BME280;6169;44.158;22.788;2023-12-20T20:39:53;100392.84;;;3.26;69.00
12213;BME280;6169;44.158;22.788;2023-12-20T20:44:57;100402.78;;;3.12;69.70
12213;BME280;6169;44.158;22.788;2023-12-20T20:50:00;100400.09;;;3.19;69.05
12213;BME280;6169;44.158;22.788;2023-12-20T20:55:03;100405.06;;;3.22;69.69
12213;BME280;6169;44.158;22.788;2023-12-20T21:00:06;100399.22;;;3.12;70.28
12213;BME280;6169;44.158;22.788;2023-12-20T21:05:10;100395.28;;;3.08;69.61
12213;BME280;6169;44.158;22.788;2023-12-20T21:10:12;100413.31;;;3.20;69.42
12213;BME280;6169;44.158;22.788;2023-12-20T21:15:14;100410.44;;;3.15;69.21
12213;BME280;6169;44.158;22.788;2023-12-20T21:20:18;100406.72;;;3.23;69.47
12213;BME280;6169;44.158;22.788;2023-12-20T21:25:20;100416.69;;;3.29;68.46
12213;BME280;6169;44.158;22.788;2023-12-20T21:30:22;100426.59;;;3.29;68.89
12213;BME280;6169;44.158;22.788;2023-12-20T21:35:26;100440.22;;;3.07;69.61
12213;BME280;6169;44.158;22.788;2023-12-20T21:40:28;100439.66;;;3.25;69.45
12213;BME280;6169;44.158;22.788;2023-12-20T21:45:30;100445.78;;;3.06;69.95
12213;BME280;6169;44.158;22.788;2023-12-20T21:50:34;100437.69;;;2.99;69.76
12213;BME280;6169;44.158;22.788;2023-12-20T21:55:36;100423.22;;;2.65;69.97
12213;BME280;6169;44.158;22.788;2023-12-20T22:00:39;100460.50;;;2.75;70.75
12213;BME280;6169;44.158;22.788;2023-12-20T22:05:42;100460.19;;;2.57;71.46
12213;BME280;6169;44.158;22.788;2023-12-20T22:10:45;100473.81;;;2.55;71.44
12213;BME280;6169;44.158;22.788;2023-12-20T22:15:47;100473.00;;;2.55;71.74
12213;BME280;6169;44.158;22.788;2023-12-20T22:20:52;100480.00;;;2.56;71.73
12213;BME280;6169;44.158;22.788;2023-12-20T22:25:54;100478.13;;;2.49;72.15
12213;BME280;6169;44.158;22.788;2023-12-20T22:30:56;100460.72;;;2.24;73.58
12213;BME280;6169;44.158;22.788;2023-12-20T22:36:00;100456.97;;;2.18;73.24
12213;BME280;6169;44.158;22.788;2023-12-20T22:41:02;100443.69;;;2.10;74.35
12213;BME280;6169;44.158;22.788;2023-12-20T22:46:04;100417.25;;;2.14;73.53
12213;BME280;6169;44.158;22.788;2023-12-20T22:51:08;100432.94;;;2.10;74.00
12213;BME280;6169;44.158;22.788;2023-12-20T22:56:10;100416.00;;;2.09;73.20
12213;BME280;6169;44.158;22.788;2023-12-20T23:01:12;100410.13;;;2.27;73.04
12213;BME280;6169;44.158;22.788;2023-12-20T23:06:16;100389.97;;;2.10;73.82
12213;BME280;6169;44.158;22.788;2023-12-20T23:11:18;100414.53;;;2.35;73.19
12213;BME280;6169;44.158;22.788;2023-12-20T23:16:20;100428.47;;;2.17;74.04
12213;BME280;6169;44.158;22.788;2023-12-20T23:21:23;100432.66;;;2.26;73.76
12213;BME280;6169;44.158;22.788;2023-12-20T23:26:26;100423.00;;;2.11;74.73
12213;BME280;6169;44.158;22.788;2023-12-20T23:31:28;100427.16;;;2.13;74.96
12213;BME280;6169;44.158;22.788;2023-12-20T23:36:32;100420.19;;;2.19;74.07
12213;BME280;6169;44.158;22.788;2023-12-20T23:41:34;100427.66;;;2.23;74.35
12213;BME280;6169;44.158;22.788;2023-12-20T23:46:36;100427.09;;;2.28;74.04
12213;BME280;6169;44.158;22.788;2023-12-20T23:51:39;100419.34;;;2.18;74.32
12213;BME280;6169;44.158;22.788;2023-12-20T23:56:42;100421.63;;;2.43;73.45
